Pagina principale
METAR-TAF:

METAR-TAF

Aeroporti :

Passo Rolle, Italia

latitudine: 46-18N, longitudine: 011-47E, altezza: 2004 m

Osservazione

Il bollettino è stato emesso 47 minuti fa, alle 15:55 UTC
Vento 6 kt da sud-est
Temperature 9°C
Umidità 61%
Pressione 1017 hPa
Visibilità 10 km o più
Nuvoloso ad un'altezza di 4000 ft

METAR: LIVR 131555Z 13006KT 9999 BKN040 09/02 Q1017 RMK BKN MON CLD SCT VIS MIN 9999

Ora: 18:42 (16:42 UTC)


TAF: mancante

Osservazioni e previsioni meteorologiche di più di 4000 aeroporti (messaggi METAR e TAF).

Le stazioni disponibili sono rappresentate dai dischi gialli e rossi sulla carta.

Puntare il mouse per vedere il nome della stazione.

Clicca sopra per visualizzare le osservazioni e previsioni meteorologiche.

Per cambiare la mappa : fare clic sui pulsanti verdi con una croce nera per ingrandire, il pulsante verde con un trattino per diminuire, o sulla freccia verde per le mappe adiacenti.


METAR-TAF: